sensor_id;sensor_type;location;lat;lon;timestamp;pressure;altitude;pressure_sealevel;temperature;humidity
43125;BME280;49182;50.788;7.318;2023-02-16T00:00:40;101867.44;;;-0.32;99.54
43125;BME280;49182;50.788;7.318;2023-02-16T00:03:09;101880.13;;;-0.20;99.90
43125;BME280;49182;50.788;7.318;2023-02-16T00:05:38;101872.25;;;-0.17;99.83
43125;BME280;49182;50.788;7.318;2023-02-16T00:08:05;101840.06;;;-0.46;99.19
43125;BME280;49182;50.788;7.318;2023-02-16T00:10:33;101882.06;;;-0.30;99.44
43125;BME280;49182;50.788;7.318;2023-02-16T00:13:01;101876.22;;;-0.38;100.00
43125;BME280;49182;50.788;7.318;2023-02-16T00:15:28;101876.22;;;-0.39;99.98
43125;BME280;49182;50.788;7.318;2023-02-16T00:17:56;101878.81;;;-0.39;99.77
43125;BME280;49182;50.788;7.318;2023-02-16T00:20:23;101877.97;;;-0.40;99.69
43125;BME280;49182;50.788;7.318;2023-02-16T00:22:51;101880.72;;;-0.48;100.00
43125;BME280;49182;50.788;7.318;2023-02-16T00:25:18;101865.28;;;-0.52;100.00
43125;BME280;49182;50.788;7.318;2023-02-16T00:27:44;101865.19;;;-0.49;99.97
43125;BME280;49182;50.788;7.318;2023-02-16T00:30:13;101866.16;;;-0.53;100.00
43125;BME280;49182;50.788;7.318;2023-02-16T00:32:40;101861.94;;;-0.59;99.88
43125;BME280;49182;50.788;7.318;2023-02-16T00:35:12;101864.63;;;-0.62;100.00
43125;BME280;49182;50.788;7.318;2023-02-16T00:37:40;101705.06;;;-1.55;100.00
43125;BME280;49182;50.788;7.318;2023-02-16T00:40:08;101853.41;;;-0.64;100.00
43125;BME280;49182;50.788;7.318;2023-02-16T00:42:35;101700.84;;;-1.60;100.00
43125;BME280;49182;50.788;7.318;2023-02-16T00:45:03;101850.81;;;-0.64;99.20
43125;BME280;49182;50.788;7.318;2023-02-16T00:47:33;101861.13;;;-0.61;100.00
43125;BME280;49182;50.788;7.318;2023-02-16T00:50:02;101844.91;;;-0.69;100.00
43125;BME280;49182;50.788;7.318;2023-02-16T00:52:32;101857.91;;;-0.72;100.00
43125;BME280;49182;50.788;7.318;2023-02-16T00:55:00;101852.75;;;-0.73;100.00
43125;BME280;49182;50.788;7.318;2023-02-16T00:57:31;101812.63;;;-0.97;100.00
43125;BME280;49182;50.788;7.318;2023-02-16T01:00:00;101847.56;;;-0.73;100.00
43125;BME280;49182;50.788;7.318;2023-02-16T01:02:29;101860.56;;;-0.75;100.00
43125;BME280;49182;50.788;7.318;2023-02-16T01:04:55;101860.84;;;-0.87;100.00
43125;BME280;49182;50.788;7.318;2023-02-16T01:07:22;101825.94;;;-1.12;100.00
43125;BME280;49182;50.788;7.318;2023-02-16T01:09:49;101867.03;;;-0.96;100.00
43125;BME280;49182;50.788;7.318;2023-02-16T01:12:18;101859.22;;;-0.93;100.00
43125;BME280;49182;50.788;7.318;2023-02-16T01:14:51;101858.31;;;-0.92;100.00
43125;BME280;49182;50.788;7.318;2023-02-16T01:17:18;101852.28;;;-0.92;100.00
43125;BME280;49182;50.788;7.318;2023-02-16T01:19:45;101855.72;;;-0.92;100.00
43125;BME280;49182;50.788;7.318;2023-02-16T01:22:14;101836.97;;;-1.04;100.00
43125;BME280;49182;50.788;7.318;2023-02-16T01:24:41;101856.56;;;-0.91;100.00
43125;BME280;49182;50.788;7.318;2023-02-16T01:27:09;101852.41;;;-0.98;100.00
43125;BME280;49182;50.788;7.318;2023-02-16T01:29:36;101849.00;;;-1.00;100.00
43125;BME280;49182;50.788;7.318;2023-02-16T01:32:04;101850.84;;;-1.05;100.00
43125;BME280;49182;50.788;7.318;2023-02-16T01:34:34;101843.97;;;-1.09;100.00
43125;BME280;49182;50.788;7.318;2023-02-16T01:37:01;101841.50;;;-1.14;100.00
43125;BME280;49182;50.788;7.318;2023-02-16T01:39:27;101805.69;;;-1.37;100.00
43125;BME280;49182;50.788;7.318;2023-02-16T01:42:17;101839.75;;;-1.12;100.00
43125;BME280;49182;50.788;7.318;2023-02-16T01:44:50;101842.41;;;-1.16;100.00
43125;BME280;49182;50.788;7.318;2023-02-16T01:47:28;101845.06;;;-1.19;100.00
43125;BME280;49182;50.788;7.318;2023-02-16T01:49:57;101837.31;;;-1.21;100.00
43125;BME280;49182;50.788;7.318;2023-02-16T01:52:31;101841.63;;;-1.22;100.00
43125;BME280;49182;50.788;7.318;2023-02-16T01:55:01;101835.59;;;-1.22;100.00
43125;BME280;49182;50.788;7.318;2023-02-16T01:57:37;101826.22;;;-1.28;100.00
43125;BME280;49182;50.788;7.318;2023-02-16T02:00:12;101819.44;;;-1.35;100.00
43125;BME280;49182;50.788;7.318;2023-02-16T02:02:42;101830.50;;;-1.25;100.00
43125;BME280;49182;50.788;7.318;2023-02-16T02:05:19;101832.22;;;-1.26;100.00
43125;BME280;49182;50.788;7.318;2023-02-16T02:07:50;101829.63;;;-1.26;100.00
43125;BME280;49182;50.788;7.318;2023-02-16T02:10:21;101830.59;;;-1.30;100.00
43125;BME280;49182;50.788;7.318;2023-02-16T02:12:52;101798.03;;;-1.43;100.00
43125;BME280;49182;50.788;7.318;2023-02-16T02:15:25;101827.06;;;-1.27;100.00
43125;BME280;49182;50.788;7.318;2023-02-16T02:17:55;101834.06;;;-1.31;100.00
43125;BME280;49182;50.788;7.318;2023-02-16T02:20:27;101782.84;;;-1.61;100.00
43125;BME280;49182;50.788;7.318;2023-02-16T02:29:17;101820.19;;;-1.28;100.00
43125;BME280;49182;50.788;7.318;2023-02-16T02:31:51;101828.03;;;-1.31;100.00
43125;BME280;49182;50.788;7.318;2023-02-16T02:34:38;101822.16;;;-1.41;100.00
43125;BME280;49182;50.788;7.318;2023-02-16T02:37:18;101829.16;;;-1.46;100.00
43125;BME280;49182;50.788;7.318;2023-02-16T02:40:01;101824.84;;;-1.47;100.00
43125;BME280;49182;50.788;7.318;2023-02-16T02:42:35;101819.84;;;-1.54;100.00
43125;BME280;49182;50.788;7.318;2023-02-16T02:45:10;101821.50;;;-1.52;100.00
43125;BME280;49182;50.788;7.318;2023-02-16T02:47:42;101814.47;;;-1.45;100.00
43125;BME280;49182;50.788;7.318;2023-02-16T02:50:48;101810.31;;;-1.54;100.00
43125;BME280;49182;50.788;7.318;2023-02-16T02:53:16;101812.19;;;-1.62;100.00
43125;BME280;49182;50.788;7.318;2023-02-16T02:55:46;101813.84;;;-1.58;100.00
43125;BME280;49182;50.788;7.318;2023-02-16T02:58:16;101813.00;;;-1.60;100.00
43125;BME280;49182;50.788;7.318;2023-02-16T03:00:45;101820.00;;;-1.64;100.00
43125;BME280;49182;50.788;7.318;2023-02-16T03:03:18;101816.63;;;-1.69;100.00
43125;BME280;49182;50.788;7.318;2023-02-16T03:05:50;101811.53;;;-1.73;100.00
43125;BME280;49182;50.788;7.318;2023-02-16T03:08:19;101809.78;;;-1.73;100.00
43125;BME280;49182;50.788;7.318;2023-02-16T03:10:50;101812.47;;;-1.79;100.00
43125;BME280;49182;50.788;7.318;2023-02-16T03:13:21;101798.75;;;-1.82;100.00
43125;BME280;49182;50.788;7.318;2023-02-16T03:15:51;101802.94;;;-1.75;100.00
43125;BME280;49182;50.788;7.318;2023-02-16T03:18:19;101803.94;;;-1.82;100.00
43125;BME280;49182;50.788;7.318;2023-02-16T03:20:46;101794.63;;;-1.92;100.00
43125;BME280;49182;50.788;7.318;2023-02-16T03:23:13;101799.75;;;-1.91;100.00
43125;BME280;49182;50.788;7.318;2023-02-16T03:25:39;101758.78;;;-2.15;100.00
43125;BME280;49182;50.788;7.318;2023-02-16T03:28:08;101766.41;;;-2.08;100.00
43125;BME280;49182;50.788;7.318;2023-02-16T03:30:36;101739.25;;;-2.33;100.00
43125;BME280;49182;50.788;7.318;2023-02-16T03:33:04;101791.19;;;-1.93;100.00
43125;BME280;49182;50.788;7.318;2023-02-16T03:35:31;101739.13;;;-2.25;100.00
43125;BME280;49182;50.788;7.318;2023-02-16T03:37:57;101786.91;;;-1.95;100.00
43125;BME280;49182;50.788;7.318;2023-02-16T03:40:26;101795.41;;;-1.89;100.00
43125;BME280;49182;50.788;7.318;2023-02-16T03:42:55;101757.09;;;-2.16;100.00
43125;BME280;49182;50.788;7.318;2023-02-16T03:45:22;101797.22;;;-1.92;100.00
43125;BME280;49182;50.788;7.318;2023-02-16T03:47:49;101787.75;;;-1.95;100.00
43125;BME280;49182;50.788;7.318;2023-02-16T03:50:17;101786.81;;;-1.91;100.00
43125;BME280;49182;50.788;7.318;2023-02-16T03:52:44;101787.72;;;-1.92;100.00
43125;BME280;49182;50.788;7.318;2023-02-16T03:55:10;101771.56;;;-2.05;100.00
43125;BME280;49182;50.788;7.318;2023-02-16T03:57:37;101781.81;;;-2.00;100.00
43125;BME280;49182;50.788;7.318;2023-02-16T04:00:04;101769.94;;;-2.12;100.00
43125;BME280;49182;50.788;7.318;2023-02-16T04:02:38;101785.34;;;-2.06;100.00
43125;BME280;49182;50.788;7.318;2023-02-16T04:05:05;101787.88;;;-2.01;100.00
43125;BME280;49182;50.788;7.318;2023-02-16T04:07:33;101764.81;;;-2.15;100.00
43125;BME280;49182;50.788;7.318;2023-02-16T04:10:00;101776.75;;;-2.08;100.00
43125;BME280;49182;50.788;7.318;2023-02-16T04:12:27;101797.34;;;-2.01;100.00
43125;BME280;49182;50.788;7.318;2023-02-16T04:14:54;101737.59;;;-2.35;100.00
43125;BME280;49182;50.788;7.318;2023-02-16T04:17:20;101792.19;;;-2.03;100.00
43125;BME280;49182;50.788;7.318;2023-02-16T04:19:47;101800.78;;;-1.99;100.00
43125;BME280;49182;50.788;7.318;2023-02-16T04:22:14;101797.44;;;-2.06;100.00
43125;BME280;49182;50.788;7.318;2023-02-16T04:24:42;101771.88;;;-2.24;100.00
43125;BME280;49182;50.788;7.318;2023-02-16T04:27:08;101792.38;;;-2.12;100.00
43125;BME280;49182;50.788;7.318;2023-02-16T04:29:35;101765.09;;;-2.33;100.00
43125;BME280;49182;50.788;7.318;2023-02-16T04:32:01;101799.28;;;-2.13;100.00
43125;BME280;49182;50.788;7.318;2023-02-16T04:34:28;101797.56;;;-2.15;100.00
43125;BME280;49182;50.788;7.318;2023-02-16T04:36:55;101795.81;;;-2.12;100.00
43125;BME280;49182;50.788;7.318;2023-02-16T04:39:22;101800.22;;;-2.17;100.00
43125;BME280;49182;50.788;7.318;2023-02-16T04:41:50;101797.72;;;-2.23;100.00
43125;BME280;49182;50.788;7.318;2023-02-16T04:44:17;101800.34;;;-2.26;100.00
43125;BME280;49182;50.788;7.318;2023-02-16T04:46:43;101793.47;;;-2.27;100.00
43125;BME280;49182;50.788;7.318;2023-02-16T04:49:10;101798.69;;;-2.30;100.00
43125;BME280;49182;50.788;7.318;2023-02-16T04:51:37;101799.50;;;-2.26;100.00
43125;BME280;49182;50.788;7.318;2023-02-16T04:54:03;101797.78;;;-2.27;100.00
43125;BME280;49182;50.788;7.318;2023-02-16T04:56:30;101789.16;;;-2.28;100.00
43125;BME280;49182;50.788;7.318;2023-02-16T04:58:58;101791.75;;;-2.28;100.00
43125;BME280;49182;50.788;7.318;2023-02-16T05:01:26;101788.34;;;-2.30;100.00
43125;BME280;49182;50.788;7.318;2023-02-16T05:03:53;101788.38;;;-2.31;100.00
43125;BME280;49182;50.788;7.318;2023-02-16T05:06:20;101785.00;;;-2.35;100.00
43125;BME280;49182;50.788;7.318;2023-02-16T05:08:47;101783.28;;;-2.37;100.00
43125;BME280;49182;50.788;7.318;2023-02-16T05:11:13;101782.41;;;-2.35;100.00
43125;BME280;49182;50.788;7.318;2023-02-16T05:13:40;101779.88;;;-2.39;100.00
43125;BME280;49182;50.788;7.318;2023-02-16T05:16:10;101792.00;;;-2.43;100.00
43125;BME280;49182;50.788;7.318;2023-02-16T05:18:37;101792.03;;;-2.46;100.00
43125;BME280;49182;50.788;7.318;2023-02-16T05:21:04;101796.31;;;-2.45;100.00
43125;BME280;49182;50.788;7.318;2023-02-16T05:23:31;101798.88;;;-2.42;100.00
43125;BME280;49182;50.788;7.318;2023-02-16T05:25:58;101783.31;;;-2.40;100.00
43125;BME280;49182;50.788;7.318;2023-02-16T05:28:24;101791.13;;;-2.43;100.00
43125;BME280;49182;50.788;7.318;2023-02-16T05:30:52;101793.75;;;-2.45;100.00
43125;BME280;49182;50.788;7.318;2023-02-16T05:33:20;101786.91;;;-2.48;100.00
43125;BME280;49182;50.788;7.318;2023-02-16T05:35:47;101774.88;;;-2.50;100.00
43125;BME280;49182;50.788;7.318;2023-02-16T05:38:13;101781.91;;;-2.60;100.00
43125;BME280;49182;50.788;7.318;2023-02-16T05:40:40;101778.41;;;-2.56;100.00
43125;BME280;49182;50.788;7.318;2023-02-16T05:43:07;101803.31;;;-2.50;100.00
43125;BME280;49182;50.788;7.318;2023-02-16T05:45:33;101800.72;;;-2.52;100.00
43125;BME280;49182;50.788;7.318;2023-02-16T05:48:00;101801.59;;;-2.51;100.00
43125;BME280;49182;50.788;7.318;2023-02-16T05:50:28;101770.84;;;-2.69;100.00
43125;BME280;49182;50.788;7.318;2023-02-16T05:52:57;101793.94;;;-2.59;100.00
43125;BME280;49182;50.788;7.318;2023-02-16T05:55:24;101805.13;;;-2.58;100.00
43125;BME280;49182;50.788;7.318;2023-02-16T05:57:51;101799.94;;;-2.55;100.00
43125;BME280;49182;50.788;7.318;2023-02-16T06:00:18;101773.41;;;-2.66;100.00
43125;BME280;49182;50.788;7.318;2023-02-16T06:02:44;101774.28;;;-2.69;100.00
43125;BME280;49182;50.788;7.318;2023-02-16T06:05:11;101791.41;;;-2.62;100.00
43125;BME280;49182;50.788;7.318;2023-02-16T06:07:39;101772.59;;;-2.71;100.00
43125;BME280;49182;50.788;7.318;2023-02-16T06:10:06;101762.41;;;-2.83;100.00
43125;BME280;49182;50.788;7.318;2023-02-16T06:12:33;101794.88;;;-2.64;100.00
43125;BME280;49182;50.788;7.318;2023-02-16T06:15:00;101801.69;;;-2.59;100.00
43125;BME280;49182;50.788;7.318;2023-02-16T06:17:27;101798.22;;;-2.56;100.00
43125;BME280;49182;50.788;7.318;2023-02-16T06:19:54;101774.53;;;-2.84;100.00
43125;BME280;49182;50.788;7.318;2023-02-16T06:22:20;101806.03;;;-2.59;100.00
43125;BME280;49182;50.788;7.318;2023-02-16T06:24:48;101807.72;;;-2.58;100.00
43125;BME280;49182;50.788;7.318;2023-02-16T06:27:15;101803.41;;;-2.56;100.00
43125;BME280;49182;50.788;7.318;2023-02-16T06:29:42;101797.44;;;-2.61;100.00
43125;BME280;49182;50.788;7.318;2023-02-16T06:32:08;101798.31;;;-2.64;100.00
43125;BME280;49182;50.788;7.318;2023-02-16T06:34:35;101801.81;;;-2.66;100.00
43125;BME280;49182;50.788;7.318;2023-02-16T06:37:02;101796.59;;;-2.63;100.00
43125;BME280;49182;50.788;7.318;2023-02-16T06:39:29;101793.16;;;-2.65;100.00
43125;BME280;49182;50.788;7.318;2023-02-16T06:41:57;101768.44;;;-2.81;100.00
43125;BME280;49182;50.788;7.318;2023-02-16T06:44:23;101803.50;;;-2.64;100.00
43125;BME280;49182;50.788;7.318;2023-02-16T06:46:50;101770.16;;;-2.80;100.00
43125;BME280;49182;50.788;7.318;2023-02-16T06:49:19;101803.47;;;-2.61;100.00
43125;BME280;49182;50.788;7.318;2023-02-16T06:51:47;101799.06;;;-2.56;100.00
43125;BME280;49182;50.788;7.318;2023-02-16T06:54:16;101798.22;;;-2.56;100.00
43125;BME280;49182;50.788;7.318;2023-02-16T06:56:43;101776.88;;;-2.70;100.00
43125;BME280;49182;50.788;7.318;2023-02-16T06:59:12;101802.53;;;-2.57;100.00
43125;BME280;49182;50.788;7.318;2023-02-16T07:01:38;101807.69;;;-2.55;100.00
43125;BME280;49182;50.788;7.318;2023-02-16T07:04:05;101803.38;;;-2.53;100.00
43125;BME280;49182;50.788;7.318;2023-02-16T07:06:31;101798.97;;;-2.48;100.00
43125;BME280;49182;50.788;7.318;2023-02-16T07:08:58;101795.44;;;-2.44;100.00
43125;BME280;49182;50.788;7.318;2023-02-16T07:11:24;101803.28;;;-2.47;100.00
43125;BME280;49182;50.788;7.318;2023-02-16T07:13:51;101797.16;;;-2.43;100.00
43125;BME280;49182;50.788;7.318;2023-02-16T07:16:19;101804.84;;;-2.37;100.00
43125;BME280;49182;50.788;7.318;2023-02-16T07:18:46;101801.28;;;-2.30;100.00
43125;BME280;49182;50.788;7.318;2023-02-16T07:21:13;101800.41;;;-2.29;100.00
43125;BME280;49182;50.788;7.318;2023-02-16T07:23:40;101806.28;;;-2.19;100.00
43125;BME280;49182;50.788;7.318;2023-02-16T07:26:07;101807.03;;;-2.13;100.00
43125;BME280;49182;50.788;7.318;2023-02-16T07:28:34;101812.09;;;-2.07;100.00
43125;BME280;49182;50.788;7.318;2023-02-16T07:31:05;101803.25;;;-1.92;100.00
43125;BME280;49182;50.788;7.318;2023-02-16T07:33:34;101804.00;;;-1.85;100.00
43125;BME280;49182;50.788;7.318;2023-02-16T07:36:00;101756.94;;;-2.09;100.00
43125;BME280;49182;50.788;7.318;2023-02-16T07:38:27;101793.47;;;-1.76;100.00
43125;BME280;49182;50.788;7.318;2023-02-16T07:40:53;101818.06;;;-1.52;100.00
43125;BME280;49182;50.788;7.318;2023-02-16T07:43:20;101828.06;;;-1.34;100.00
43125;BME280;49182;50.788;7.318;2023-02-16T07:45:46;101831.25;;;-1.20;100.00
43125;BME280;49182;50.788;7.318;2023-02-16T07:48:13;101820.66;;;-1.08;100.00
43125;BME280;49182;50.788;7.318;2023-02-16T07:50:42;101804.19;;;-1.05;100.00
43125;BME280;49182;50.788;7.318;2023-02-16T07:53:08;101827.13;;;-0.87;100.00
43125;BME280;49182;50.788;7.318;2023-02-16T07:55:38;101819.00;;;-0.72;100.00
43125;BME280;49182;50.788;7.318;2023-02-16T07:58:05;101818.06;;;-0.68;100.00
43125;BME280;49182;50.788;7.318;2023-02-16T08:00:31;101815.28;;;-0.60;100.00
43125;BME280;49182;50.788;7.318;2023-02-16T08:02:58;101809.81;;;-0.47;100.00
43125;BME280;49182;50.788;7.318;2023-02-16T08:05:25;101812.38;;;-0.45;100.00
43125;BME280;49182;50.788;7.318;2023-02-16T08:07:53;101822.72;;;-0.44;100.00
43125;BME280;49182;50.788;7.318;2023-02-16T08:10:19;101810.50;;;-0.38;100.00
43125;BME280;49182;50.788;7.318;2023-02-16T08:12:46;101811.16;;;-0.30;100.00
43125;BME280;49182;50.788;7.318;2023-02-16T08:15:13;101813.50;;;-0.20;100.00
43125;BME280;49182;50.788;7.318;2023-02-16T08:17:39;101813.22;;;-0.08;100.00
43125;BME280;49182;50.788;7.318;2023-02-16T08:20:07;101799.97;;;0.03;99.99
43125;BME280;49182;50.788;7.318;2023-02-16T08:22:34;101818.50;;;0.23;99.52
43125;BME280;49182;50.788;7.318;2023-02-16T08:25:02;101808.00;;;0.26;99.72
43125;BME280;49182;50.788;7.318;2023-02-16T08:27:32;101806.06;;;0.34;100.00
43125;BME280;49182;50.788;7.318;2023-02-16T08:29:58;101804.19;;;0.39;100.00
43125;BME280;49182;50.788;7.318;2023-02-16T08:32:25;101802.88;;;0.56;100.00
43125;BME280;49182;50.788;7.318;2023-02-16T08:34:52;101800.00;;;0.68;100.00
43125;BME280;49182;50.788;7.318;2023-02-16T08:37:18;101799.53;;;0.83;98.86
43125;BME280;49182;50.788;7.318;2023-02-16T08:39:45;101793.50;;;0.82;100.00
43125;BME280;49182;50.788;7.318;2023-02-16T08:42:13;101773.75;;;0.75;100.00
43125;BME280;49182;50.788;7.318;2023-02-16T08:44:40;101789.78;;;0.91;100.00
43125;BME280;49182;50.788;7.318;2023-02-16T08:47:06;101803.09;;;1.10;100.00
43125;BME280;49182;50.788;7.318;2023-02-16T08:49:33;101800.88;;;1.26;100.00
43125;BME280;49182;50.788;7.318;2023-02-16T08:52:00;101804.97;;;1.34;100.00
43125;BME280;49182;50.788;7.318;2023-02-16T08:54:28;101795.94;;;1.46;100.00
43125;BME280;49182;50.788;7.318;2023-02-16T08:56:55;101804.28;;;1.55;100.00
43125;BME280;49182;50.788;7.318;2023-02-16T08:59:24;101805.56;;;1.70;100.00
43125;BME280;49182;50.788;7.318;2023-02-16T09:01:54;101746.38;;;1.49;100.00
43125;BME280;49182;50.788;7.318;2023-02-16T09:04:21;101797.00;;;1.93;100.00
43125;BME280;49182;50.788;7.318;2023-02-16T09:06:47;101799.38;;;2.00;100.00
43125;BME280;49182;50.788;7.318;2023-02-16T09:09:15;101796.41;;;2.11;100.00
43125;BME280;49182;50.788;7.318;2023-02-16T09:11:41;101793.28;;;2.26;100.00
43125;BME280;49182;50.788;7.318;2023-02-16T09:14:08;101800.00;;;2.33;100.00
43125;BME280;49182;50.788;7.318;2023-02-16T09:16:37;101800.47;;;2.44;100.00
43125;BME280;49182;50.788;7.318;2023-02-16T09:19:04;101797.59;;;2.52;100.00
43125;BME280;49182;50.788;7.318;2023-02-16T09:21:31;101774.16;;;2.52;100.00
43125;BME280;49182;50.788;7.318;2023-02-16T09:23:59;101794.22;;;2.73;100.00
43125;BME280;49182;50.788;7.318;2023-02-16T09:26:27;101799.22;;;3.03;100.00
43125;BME280;49182;50.788;7.318;2023-02-16T09:28:55;101807.81;;;3.28;97.66
43125;BME280;49182;50.788;7.318;2023-02-16T09:31:26;101799.03;;;3.31;97.61
43125;BME280;49182;50.788;7.318;2023-02-16T09:33:57;101805.19;;;3.51;97.18
43125;BME280;49182;50.788;7.318;2023-02-16T09:36:25;101813.50;;;3.61;97.38
43125;BME280;49182;50.788;7.318;2023-02-16T09:38:52;101808.84;;;3.69;97.43
43125;BME280;49182;50.788;7.318;2023-02-16T09:41:27;101803.84;;;3.85;95.87
43125;BME280;49182;50.788;7.318;2023-02-16T09:43:58;101807.53;;;4.01;92.52
43125;BME280;49182;50.788;7.318;2023-02-16T09:46:28;101802.97;;;4.06;92.31
43125;BME280;49182;50.788;7.318;2023-02-16T09:48:59;101806.19;;;4.13;92.17
43125;BME280;49182;50.788;7.318;2023-02-16T09:51:32;101799.75;;;4.20;90.56
43125;BME280;49182;50.788;7.318;2023-02-16T09:54:10;101808.28;;;4.25;91.26
43125;BME280;49182;50.788;7.318;2023-02-16T09:56:45;101801.19;;;4.27;90.80
43125;BME280;49182;50.788;7.318;2023-02-16T09:59:24;101782.06;;;4.26;91.00
43125;BME280;49182;50.788;7.318;2023-02-16T10:01:59;101789.03;;;4.46;91.15
43125;BME280;49182;50.788;7.318;2023-02-16T10:04:37;101805.38;;;4.71;89.74
43125;BME280;49182;50.788;7.318;2023-02-16T10:07:14;101792.84;;;4.98;89.22
43125;BME280;49182;50.788;7.318;2023-02-16T10:09:48;101790.97;;;5.19;88.24
43125;BME280;49182;50.788;7.318;2023-02-16T10:12:19;101794.88;;;5.29;88.63
43125;BME280;49182;50.788;7.318;2023-02-16T10:14:51;101793.66;;;5.55;87.93
43125;BME280;49182;50.788;7.318;2023-02-16T10:17:25;101791.75;;;5.76;86.17
43125;BME280;49182;50.788;7.318;2023-02-16T10:19:58;101772.97;;;5.85;84.38
43125;BME280;49182;50.788;7.318;2023-02-16T10:22:30;101792.91;;;6.06;83.94
43125;BME280;49182;50.788;7.318;2023-02-16T10:25:00;101801.72;;;6.22;84.02
43125;BME280;49182;50.788;7.318;2023-02-16T10:27:36;101803.41;;;6.40;82.86
43125;BME280;49182;50.788;7.318;2023-02-16T10:30:10;101781.94;;;6.49;84.02
43125;BME280;49182;50.788;7.318;2023-02-16T10:32:47;101803.94;;;6.80;83.20
43125;BME280;49182;50.788;7.318;2023-02-16T10:35:24;101803.47;;;7.05;82.65
43125;BME280;49182;50.788;7.318;2023-02-16T10:38:00;101802.50;;;7.23;81.92
43125;BME280;49182;50.788;7.318;2023-02-16T10:40:35;101791.16;;;7.38;81.33
43125;BME280;49182;50.788;7.318;2023-02-16T10:43:11;101797.94;;;7.58;79.77
43125;BME280;49182;50.788;7.318;2023-02-16T10:45:43;101796.41;;;7.69;78.07
43125;BME280;49182;50.788;7.318;2023-02-16T10:48:17;101795.00;;;7.94;77.22
43125;BME280;49182;50.788;7.318;2023-02-16T10:50:52;101794.44;;;8.03;77.05
43125;BME280;49182;50.788;7.318;2023-02-16T10:53:32;101781.50;;;8.00;78.01
43125;BME280;49182;50.788;7.318;2023-02-16T10:56:00;101796.47;;;8.13;77.53
43125;BME280;49182;50.788;7.318;2023-02-16T10:58:36;101779.41;;;8.21;77.03
43125;BME280;49182;50.788;7.318;2023-02-16T11:01:10;101786.06;;;8.26;77.05
43125;BME280;49182;50.788;7.318;2023-02-16T11:03:44;101721.28;;;7.95;77.64
43125;BME280;49182;50.788;7.318;2023-02-16T11:06:14;101780.19;;;8.37;78.24
43125;BME280;49182;50.788;7.318;2023-02-16T11:08:46;101779.38;;;8.50;77.15
43125;BME280;49182;50.788;7.318;2023-02-16T11:11:13;101761.22;;;8.46;77.27
43125;BME280;49182;50.788;7.318;2023-02-16T11:13:40;101767.06;;;8.65;78.27
43125;BME280;49182;50.788;7.318;2023-02-16T11:16:10;101733.78;;;8.64;76.85
43125;BME280;49182;50.788;7.318;2023-02-16T11:18:40;101764.69;;;8.89;77.60
43125;BME280;49182;50.788;7.318;2023-02-16T11:21:09;101753.53;;;9.00;76.11
43125;BME280;49182;50.788;7.318;2023-02-16T11:23:38;101735.53;;;9.06;75.64
43125;BME280;49182;50.788;7.318;2023-02-16T11:26:06;101755.91;;;9.31;74.09
43125;BME280;49182;50.788;7.318;2023-02-16T11:28:47;101750.69;;;9.44;73.91
43125;BME280;49182;50.788;7.318;2023-02-16T11:31:17;101734.75;;;9.45;74.62
43125;BME280;49182;50.788;7.318;2023-02-16T11:33:57;101738.34;;;9.71;74.90
43125;BME280;49182;50.788;7.318;2023-02-16T11:36:30;101613.56;;;9.18;74.67
43125;BME280;49182;50.788;7.318;2023-02-16T11:39:02;101702.28;;;9.84;74.47
43125;BME280;49182;50.788;7.318;2023-02-16T11:41:30;101699.13;;;9.92;74.71
43125;BME280;49182;50.788;7.318;2023-02-16T11:43:56;101719.63;;;10.13;74.55
43125;BME280;49182;50.788;7.318;2023-02-16T11:46:23;101733.81;;;10.25;74.25
43125;BME280;49182;50.788;7.318;2023-02-16T11:48:50;101724.53;;;10.32;73.26
43125;BME280;49182;50.788;7.318;2023-02-16T11:51:30;101691.72;;;10.24;72.13
43125;BME280;49182;50.788;7.318;2023-02-16T11:54:03;101701.63;;;10.33;72.92
43125;BME280;49182;50.788;7.318;2023-02-16T11:56:31;101705.72;;;10.49;73.08
43125;BME280;49182;50.788;7.318;2023-02-16T11:59:04;101705.28;;;10.55;72.12
43125;BME280;49182;50.788;7.318;2023-02-16T12:01:42;101706.13;;;10.69;72.56
43125;BME280;49182;50.788;7.318;2023-02-16T12:04:20;101703.25;;;10.84;71.41
43125;BME280;49182;50.788;7.318;2023-02-16T12:06:59;101699.63;;;10.98;68.78
43125;BME280;49182;50.788;7.318;2023-02-16T12:09:36;101697.09;;;10.97;67.67
43125;BME280;49182;50.788;7.318;2023-02-16T12:12:12;101695.69;;;11.04;68.31
43125;BME280;49182;50.788;7.318;2023-02-16T12:14:47;101692.47;;;11.11;67.04
43125;BME280;49182;50.788;7.318;2023-02-16T12:17:28;101680.56;;;11.06;65.82
43125;BME280;49182;50.788;7.318;2023-02-16T12:20:04;101668.31;;;11.05;65.95
43125;BME280;49182;50.788;7.318;2023-02-16T12:22:43;101674.44;;;11.05;65.28
43125;BME280;49182;50.788;7.318;2023-02-16T12:25:22;101643.50;;;10.94;65.97
43125;BME280;49182;50.788;7.318;2023-02-16T12:27:54;101669.03;;;11.07;65.88
43125;BME280;49182;50.788;7.318;2023-02-16T12:30:35;101657.00;;;11.03;65.74
43125;BME280;49182;50.788;7.318;2023-02-16T12:33:19;101665.78;;;11.03;66.98
43125;BME280;49182;50.788;7.318;2023-02-16T12:39:15;101661.06;;;10.95;67.31
43125;BME280;49182;50.788;7.318;2023-02-16T12:41:57;101656.72;;;10.94;67.36
43125;BME280;49182;50.788;7.318;2023-02-16T12:44:34;101615.97;;;10.86;67.20
43125;BME280;49182;50.788;7.318;2023-02-16T12:47:11;101653.28;;;11.05;67.64
43125;BME280;49182;50.788;7.318;2023-02-16T12:49:46;101655.81;;;11.07;68.39
43125;BME280;49182;50.788;7.318;2023-02-16T12:52:29;101657.81;;;11.16;68.21
43125;BME280;49182;50.788;7.318;2023-02-16T12:55:17;101662.47;;;11.12;68.89
43125;BME280;49182;50.788;7.318;2023-02-16T12:57:51;101642.56;;;10.95;68.05
43125;BME280;49182;50.788;7.318;2023-02-16T13:00:25;101661.09;;;11.07;68.15
43125;BME280;49182;50.788;7.318;2023-02-16T13:03:03;101644.53;;;11.05;68.33
43125;BME280;49182;50.788;7.318;2023-02-16T13:05:37;101644.69;;;11.14;68.66
43125;BME280;49182;50.788;7.318;2023-02-16T13:08:11;101628.50;;;11.19;67.57